Terminal Aerodrome Forecast
Issued by NWS Grand Forks, ND

Home | Current Version | Previous Version | Graphics & Text | Print | Product List | Glossary On
Versions: 1 2 3 4 5 6 7 8 9 10 11 12 13 14 15 16 17 18 19 20 21
000
FTUS43 KFGF 281720
TAFFAR
TAF
KFAR 281720Z 2818/2918 02010KT P6SM VCSH SCT030 OVC090
     FM290200 36005KT P6SM BKN050
     FM290800 VRB03KT P6SM BKN020
     FM291200 30004KT P6SM BKN025
     FM291500 29007KT P6SM SCT015=

USA.gov is the U.S. government's official web portal to all federal, state and local government web resources and services.